createdAt,value
2019-01-29T00:00:15.160Z,4.50
2019-01-29T00:02:44.123Z,5.70
2019-01-29T00:05:12.658Z,4.87
2019-01-29T00:07:41.075Z,4.77
2019-01-29T00:10:09.904Z,4.30
2019-01-29T00:12:38.318Z,5.57
2019-01-29T00:15:10.153Z,4.80
2019-01-29T00:17:45.569Z,5.00
2019-01-29T00:20:15.272Z,5.30
2019-01-29T00:22:43.670Z,4.27
2019-01-29T00:25:12.873Z,4.90
2019-01-29T00:27:41.316Z,5.80
2019-01-29T00:30:12.456Z,4.70
2019-01-29T00:32:40.887Z,5.20
2019-01-29T00:35:10.221Z,4.70
2019-01-29T00:37:38.728Z,4.03
2019-01-29T00:40:12.489Z,4.80
2019-01-29T00:42:40.924Z,4.80
2019-01-29T00:45:14.702Z,4.57
2019-01-29T00:47:43.107Z,5.17
2019-01-29T00:50:14.956Z,4.27
2019-01-29T00:52:43.451Z,4.33
2019-01-29T00:55:14.650Z,4.27
2019-01-29T00:57:43.412Z,4.50
2019-01-29T01:00:23.141Z,3.87
2019-01-29T01:02:53.228Z,4.27
2019-01-29T01:05:22.021Z,4.00
2019-01-29T01:07:50.474Z,3.97
2019-01-29T01:10:20.572Z,5.40
2019-01-29T01:12:49.303Z,4.90
2019-01-29T01:15:18.100Z,4.70
2019-01-29T01:17:46.568Z,3.90
2019-01-29T01:20:18.082Z,4.77
2019-01-29T01:22:51.072Z,4.80
2019-01-29T01:25:17.316Z,4.20
2019-01-29T01:27:45.732Z,4.40
2019-01-29T01:30:16.882Z,5.07
2019-01-29T01:32:45.276Z,4.20
2019-01-29T01:35:14.239Z,3.97
2019-01-29T01:37:43.025Z,4.90
2019-01-29T01:40:14.512Z,4.47
2019-01-29T01:42:42.946Z,3.73
2019-01-29T01:45:12.173Z,4.43
2019-01-29T01:47:40.591Z,4.23
2019-01-29T01:50:11.541Z,4.33
2019-01-29T01:52:39.969Z,4.07
2019-01-29T01:55:11.381Z,4.17
2019-01-29T01:57:39.780Z,4.30
2019-01-29T02:00:13.718Z,4.37
2019-01-29T02:02:42.120Z,4.57
2019-01-29T02:05:10.723Z,4.30
2019-01-29T02:07:39.141Z,4.03
2019-01-29T02:10:13.324Z,3.73
2019-01-29T02:12:41.728Z,4.10
2019-01-29T02:15:11.879Z,3.50
2019-01-29T02:17:40.298Z,3.47
2019-01-29T02:20:11.713Z,5.30
2019-01-29T02:22:40.136Z,3.67
2019-01-29T02:25:09.088Z,3.47
2019-01-29T02:27:37.485Z,3.90
2019-01-29T02:30:08.970Z,3.47
2019-01-29T02:32:37.617Z,3.77
2019-01-29T02:35:06.976Z,3.60
2019-01-29T02:37:35.394Z,3.83
2019-01-29T02:40:06.826Z,3.17
2019-01-29T02:42:35.227Z,2.70
2019-01-29T02:45:05.334Z,3.07
2019-01-29T02:47:33.737Z,3.13
2019-01-29T02:50:02.329Z,2.90
2019-01-29T02:52:30.746Z,3.60
2019-01-29T02:54:59.154Z,4.70
2019-01-29T02:57:27.700Z,2.90
2019-01-29T02:59:56.113Z,2.80
2019-01-29T03:02:24.540Z,2.77
2019-01-29T03:04:53.494Z,3.07
2019-01-29T03:07:22.251Z,3.00
2019-01-29T03:09:50.780Z,3.40
2019-01-29T03:12:19.175Z,3.67
2019-01-29T03:14:47.612Z,2.87
2019-01-29T03:17:16.044Z,3.47
2019-01-29T03:19:44.459Z,2.97
2019-01-29T03:22:13.020Z,2.13
2019-01-29T03:24:41.560Z,2.97
2019-01-29T03:27:09.995Z,2.67
2019-01-29T03:29:38.397Z,3.00
2019-01-29T03:32:06.814Z,3.53
2019-01-29T03:34:35.243Z,2.67
2019-01-29T03:37:03.659Z,2.87
2019-01-29T03:39:32.070Z,2.77
2019-01-29T03:42:00.479Z,2.30
2019-01-29T03:44:28.885Z,2.63
2019-01-29T03:46:57.292Z,2.53
2019-01-29T03:49:25.704Z,3.03
2019-01-29T03:51:54.351Z,3.13
2019-01-29T03:54:22.775Z,2.93
2019-01-29T03:56:51.238Z,3.10
2019-01-29T03:59:19.640Z,2.80
2019-01-29T04:01:48.242Z,3.10
2019-01-29T04:04:16.659Z,2.43
2019-01-29T04:06:45.094Z,2.90
2019-01-29T04:09:14.228Z,2.00
2019-01-29T04:11:42.627Z,2.10
2019-01-29T04:14:11.324Z,2.93
2019-01-29T04:16:39.728Z,2.50
2019-01-29T04:19:08.133Z,2.43
2019-01-29T04:21:36.549Z,2.67
2019-01-29T04:24:04.957Z,2.20
2019-01-29T04:26:33.357Z,2.53
2019-01-29T04:29:07.501Z,2.83
2019-01-29T04:31:35.902Z,2.67
2019-01-29T04:34:04.755Z,2.70
2019-01-29T04:36:34.714Z,2.23
2019-01-29T04:39:04.881Z,3.90
2019-01-29T04:41:33.278Z,3.37
2019-01-29T04:44:01.705Z,4.73
2019-01-29T04:46:30.104Z,2.80
2019-01-29T04:48:58.532Z,2.43
2019-01-29T04:51:26.940Z,2.73
2019-01-29T04:53:57.624Z,3.80
2019-01-29T04:56:25.500Z,3.00
2019-01-29T04:58:53.902Z,2.60
2019-01-29T05:01:22.300Z,3.77
2019-01-29T05:03:50.721Z,2.70
2019-01-29T05:06:19.116Z,3.23
2019-01-29T05:08:47.654Z,3.13
2019-01-29T05:11:16.072Z,2.13
2019-01-29T05:13:44.484Z,2.13
2019-01-29T05:16:12.896Z,3.00
2019-01-29T05:18:41.322Z,3.50
2019-01-29T05:21:09.717Z,3.30
2019-01-29T05:23:38.232Z,3.13
2019-01-29T05:26:06.629Z,2.73
2019-01-29T05:28:35.040Z,3.30
2019-01-29T05:31:03.446Z,4.53
2019-01-29T05:33:31.856Z,2.77
2019-01-29T05:36:00.254Z,2.77
2019-01-29T05:38:28.659Z,2.93
2019-01-29T05:40:57.061Z,2.80
2019-01-29T05:43:25.606Z,3.13
2019-01-29T05:45:54.014Z,2.50
2019-01-29T05:48:22.423Z,3.37
2019-01-29T05:50:50.852Z,2.50
2019-01-29T05:53:19.244Z,2.80
2019-01-29T05:55:47.660Z,3.50
2019-01-29T05:58:16.068Z,3.70
2019-01-29T06:00:44.748Z,3.03
2019-01-29T06:03:13.159Z,2.90
2019-01-29T06:05:41.829Z,2.27
2019-01-29T06:08:10.231Z,3.10
2019-01-29T06:10:38.644Z,2.40
2019-01-29T06:13:07.124Z,3.47
2019-01-29T06:15:35.638Z,3.17
2019-01-29T06:18:04.319Z,3.23
2019-01-29T06:20:32.794Z,3.00
2019-01-29T06:23:01.199Z,3.97
2019-01-29T06:25:29.621Z,2.90
2019-01-29T06:27:58.035Z,3.80
2019-01-29T06:30:26.909Z,3.30
2019-01-29T06:32:55.396Z,4.47
2019-01-29T06:35:24.189Z,4.20
2019-01-29T06:37:52.623Z,3.77
2019-01-29T06:40:26.500Z,4.00
2019-01-29T06:42:56.501Z,5.87
2019-01-29T06:45:26.620Z,3.50
2019-01-29T06:47:55.360Z,4.20
2019-01-29T06:50:26.417Z,4.73
2019-01-29T06:52:56.067Z,4.03
2019-01-29T06:55:25.920Z,4.73
2019-01-29T06:57:56.025Z,3.80
2019-01-29T07:00:32.609Z,3.90
2019-01-29T07:03:01.956Z,3.97
2019-01-29T07:05:30.714Z,4.00
2019-01-29T07:07:59.303Z,4.63
2019-01-29T07:10:28.616Z,6.10
2019-01-29T07:12:57.279Z,5.37
2019-01-29T07:15:47.637Z,5.10
2019-01-29T07:18:21.119Z,6.50
2019-01-29T07:20:49.588Z,4.83
2019-01-29T07:23:18.321Z,5.00
2019-01-29T07:25:46.753Z,4.53
2019-01-29T07:28:15.333Z,8.33
2019-01-29T07:30:43.732Z,11.43
2019-01-29T07:33:12.147Z,7.43
2019-01-29T07:35:40.527Z,4.53
2019-01-29T07:38:08.967Z,4.63
2019-01-29T07:40:37.395Z,4.80
2019-01-29T07:43:05.796Z,6.00
2019-01-29T07:45:34.216Z,5.10
2019-01-29T07:48:02.644Z,5.23
2019-01-29T07:50:33.173Z,5.00
2019-01-29T07:53:01.580Z,4.63
2019-01-29T07:55:29.996Z,4.70
2019-01-29T07:57:58.405Z,4.90
2019-01-29T08:00:26.806Z,3.90
2019-01-29T08:02:55.584Z,5.47
2019-01-29T08:05:23.980Z,4.10
2019-01-29T08:07:52.397Z,5.00
2019-01-29T08:10:20.815Z,4.73
2019-01-29T08:12:49.225Z,4.13
2019-01-29T08:15:20.536Z,3.77
2019-01-29T08:17:49.137Z,3.70
2019-01-29T08:20:18.279Z,4.40
2019-01-29T08:22:46.704Z,4.30
2019-01-29T08:25:15.433Z,3.30
2019-01-29T08:27:45.377Z,3.37
2019-01-29T08:30:18.370Z,2.83
2019-01-29T08:32:46.788Z,3.67
2019-01-29T08:35:16.963Z,4.50
2019-01-29T08:37:45.384Z,3.30
2019-01-29T08:40:34.645Z,3.27
2019-01-29T08:43:03.078Z,3.60
2019-01-29T08:45:31.772Z,3.33
2019-01-29T08:48:00.179Z,4.30
2019-01-29T08:50:28.864Z,4.23
2019-01-29T08:52:57.264Z,3.93
2019-01-29T08:55:25.841Z,4.50
2019-01-29T08:57:54.348Z,3.97
2019-01-29T09:00:23.499Z,3.83
2019-01-29T09:03:12.784Z,4.20
2019-01-29T09:05:41.236Z,4.47
2019-01-29T09:08:09.895Z,4.50
2019-01-29T09:10:38.320Z,5.53
2019-01-29T09:13:06.772Z,6.30
2019-01-29T09:15:35.192Z,5.13
2019-01-29T09:18:04.278Z,7.10
2019-01-29T09:20:32.695Z,5.60
2019-01-29T09:23:01.100Z,6.07
2019-01-29T09:25:29.528Z,5.87
2019-01-29T09:27:57.951Z,5.40
2019-01-29T09:30:26.352Z,5.07
2019-01-29T09:32:54.761Z,6.03
2019-01-29T09:35:23.177Z,4.90
2019-01-29T09:37:51.896Z,4.63
2019-01-29T09:40:23.989Z,5.53
2019-01-29T09:42:52.667Z,4.80
2019-01-29T09:45:21.448Z,4.70
2019-01-29T09:47:50.075Z,6.13
2019-01-29T09:50:23.588Z,5.30
2019-01-29T09:52:52.927Z,4.90
2019-01-29T09:55:28.978Z,4.50
2019-01-29T09:57:52.722Z,6.93
2019-01-29T10:00:29.778Z,5.37
2019-01-29T10:02:58.163Z,4.73
2019-01-29T10:05:27.153Z,4.73
2019-01-29T10:07:55.792Z,4.63
2019-01-29T10:10:24.273Z,4.90
2019-01-29T10:12:52.879Z,5.40
2019-01-29T10:15:28.274Z,5.20
2019-01-29T10:17:56.703Z,5.17
2019-01-29T10:20:25.616Z,4.43
2019-01-29T10:22:54.023Z,4.23
2019-01-29T10:25:22.424Z,5.17
2019-01-29T10:27:50.897Z,5.77
2019-01-29T10:30:22.236Z,4.13
2019-01-29T10:32:51.027Z,6.20
2019-01-29T10:35:21.840Z,5.17
2019-01-29T10:37:50.445Z,5.67
2019-01-29T10:40:21.653Z,4.70
2019-01-29T10:42:50.251Z,3.80
2019-01-29T10:45:22.044Z,3.87
2019-01-29T10:47:50.472Z,4.47
2019-01-29T10:50:24.338Z,4.53
2019-01-29T10:52:53.216Z,4.03
2019-01-29T10:55:21.976Z,5.43
2019-01-29T10:57:50.833Z,3.60
2019-01-29T11:00:22.981Z,4.00
2019-01-29T11:02:51.768Z,3.87
2019-01-29T11:05:21.224Z,6.43
2019-01-29T11:07:49.717Z,5.00
2019-01-29T11:10:19.662Z,3.80
2019-01-29T11:12:48.338Z,3.60
2019-01-29T11:15:25.632Z,3.20
2019-01-29T11:17:54.413Z,4.10
2019-01-29T11:20:23.267Z,2.93
2019-01-29T11:22:51.672Z,3.70
2019-01-29T11:25:29.252Z,3.33
2019-01-29T11:27:58.058Z,3.10
2019-01-29T11:30:28.801Z,3.53
2019-01-29T11:32:57.508Z,3.40
2019-01-29T11:35:25.927Z,3.37
2019-01-29T11:37:54.368Z,3.90
2019-01-29T11:40:25.329Z,4.30
2019-01-29T11:42:54.387Z,5.10
2019-01-29T11:45:31.361Z,2.27
2019-01-29T11:47:59.784Z,4.17
2019-01-29T11:50:28.429Z,5.00
2019-01-29T11:52:56.908Z,4.50
2019-01-29T11:55:25.304Z,5.43
2019-01-29T11:57:53.805Z,3.90
2019-01-29T12:00:29.724Z,5.10
2019-01-29T12:02:58.174Z,5.30
2019-01-29T12:05:26.621Z,4.80
2019-01-29T12:07:55.341Z,5.43
2019-01-29T12:10:24.274Z,3.97
2019-01-29T12:12:52.762Z,3.67
2019-01-29T12:15:22.015Z,5.80
2019-01-29T12:17:51.671Z,4.90
2019-01-29T12:20:20.942Z,4.37
2019-01-29T12:22:49.917Z,4.83
2019-01-29T12:25:18.392Z,5.03
2019-01-29T12:27:46.876Z,4.67
2019-01-29T12:30:18.438Z,4.90
2019-01-29T12:32:46.852Z,5.00
2019-01-29T12:35:15.530Z,4.83
2019-01-29T12:37:44.007Z,4.87
2019-01-29T12:40:13.187Z,5.57
2019-01-29T12:42:41.833Z,5.30
2019-01-29T12:45:16.048Z,5.77
2019-01-29T12:47:44.543Z,6.27
2019-01-29T12:50:16.108Z,7.17
2019-01-29T12:52:46.212Z,8.30
2019-01-29T12:55:14.640Z,8.20
2019-01-29T12:57:43.075Z,8.97
2019-01-29T13:00:17.407Z,9.00
2019-01-29T13:02:45.826Z,9.67
2019-01-29T13:05:15.073Z,9.47
2019-01-29T13:07:44.015Z,10.50
2019-01-29T13:10:18.252Z,11.33
2019-01-29T13:12:46.660Z,12.77
2019-01-29T13:15:18.427Z,10.43
2019-01-29T13:17:46.831Z,11.50
2019-01-29T13:20:15.578Z,11.23
2019-01-29T13:22:43.985Z,10.30
2019-01-29T13:25:13.736Z,9.60
2019-01-29T13:27:42.449Z,9.93
2019-01-29T13:30:13.940Z,7.67
2019-01-29T13:32:42.579Z,10.60
2019-01-29T13:35:14.320Z,9.77
2019-01-29T13:37:42.758Z,10.77
2019-01-29T13:40:13.518Z,10.30
2019-01-29T13:42:41.936Z,9.53
2019-01-29T13:45:13.685Z,8.63
2019-01-29T13:47:42.095Z,10.07
2019-01-29T13:50:25.496Z,9.20
2019-01-29T13:52:53.889Z,9.40
2019-01-29T13:55:22.316Z,6.67
2019-01-29T13:57:50.888Z,10.07
2019-01-29T14:00:28.560Z,10.57
2019-01-29T14:02:56.972Z,8.77
2019-01-29T14:05:25.384Z,8.80
2019-01-29T14:07:53.832Z,9.93
2019-01-29T14:10:22.309Z,7.37
2019-01-29T14:12:52.140Z,9.27
2019-01-29T14:15:27.015Z,7.57
2019-01-29T14:17:55.411Z,9.77
2019-01-29T14:20:23.843Z,9.33
2019-01-29T14:22:52.529Z,10.73
2019-01-29T14:25:20.987Z,8.70
2019-01-29T14:27:49.469Z,8.87
2019-01-29T14:30:28.138Z,8.40
2019-01-29T14:32:56.591Z,9.13
2019-01-29T14:35:44.394Z,8.80
2019-01-29T14:38:21.597Z,8.87
2019-01-29T14:40:50.068Z,7.77
2019-01-29T14:43:24.476Z,8.40
2019-01-29T14:45:54.428Z,8.80
2019-01-29T14:48:22.838Z,8.63
2019-01-29T14:50:51.262Z,8.70
2019-01-29T14:53:19.666Z,8.30
2019-01-29T14:55:48.449Z,7.83
2019-01-29T14:58:16.879Z,7.77
2019-01-29T15:00:45.584Z,8.20
2019-01-29T15:03:13.980Z,7.87
2019-01-29T15:05:42.455Z,7.50
2019-01-29T15:08:11.238Z,7.20
2019-01-29T15:10:39.773Z,7.50
2019-01-29T15:13:08.259Z,7.90
2019-01-29T15:15:39.675Z,6.53
2019-01-29T15:18:15.982Z,7.00
2019-01-29T15:20:44.387Z,6.60
2019-01-29T15:23:12.980Z,6.87
2019-01-29T15:25:41.413Z,4.60
2019-01-29T15:28:09.999Z,6.10
2019-01-29T15:30:38.399Z,6.60
2019-01-29T15:33:06.815Z,6.03
2019-01-29T15:35:35.212Z,6.63
2019-01-29T15:38:04.110Z,6.10
2019-01-29T15:40:32.556Z,6.13
2019-01-29T15:43:00.966Z,7.77
2019-01-29T15:45:30.236Z,16.47
2019-01-29T15:47:58.654Z,7.07
2019-01-29T15:50:31.813Z,10.90
2019-01-29T15:53:00.593Z,8.40
2019-01-29T15:55:28.994Z,8.77
2019-01-29T15:57:57.695Z,8.77
2019-01-29T16:00:34.145Z,9.03
2019-01-29T16:03:02.612Z,7.93
2019-01-29T16:05:39.929Z,9.67
2019-01-29T16:08:13.148Z,9.10
2019-01-29T16:10:43.400Z,9.30
2019-01-29T16:13:11.884Z,8.40
2019-01-29T16:15:40.752Z,9.23
2019-01-29T16:18:09.509Z,9.20
2019-01-29T16:20:38.184Z,7.83
2019-01-29T16:23:07.014Z,8.33
2019-01-29T16:25:37.399Z,10.17
2019-01-29T16:28:06.333Z,10.00
2019-01-29T16:30:39.331Z,9.70
2019-01-29T16:33:08.128Z,10.70
2019-01-29T16:35:43.745Z,10.97
2019-01-29T16:38:12.433Z,10.37
2019-01-29T16:40:43.280Z,11.73
2019-01-29T16:43:12.007Z,11.00
2019-01-29T16:45:40.408Z,12.47
2019-01-29T16:48:10.589Z,12.80
2019-01-29T16:50:39.003Z,10.60
2019-01-29T16:53:08.853Z,11.20
2019-01-29T16:55:37.899Z,11.03
2019-01-29T16:58:07.148Z,12.00
2019-01-29T17:00:41.736Z,12.07
2019-01-29T17:03:10.416Z,12.03
2019-01-29T17:05:39.399Z,11.87
2019-01-29T17:08:07.864Z,11.90
2019-01-29T17:10:36.343Z,12.10
2019-01-29T17:13:06.106Z,14.13
2019-01-29T17:15:36.552Z,12.80
2019-01-29T17:18:10.532Z,12.63
2019-01-29T17:20:44.365Z,13.63
2019-01-29T17:23:13.077Z,12.00
2019-01-29T17:25:41.478Z,12.70
2019-01-29T17:28:10.181Z,13.10
2019-01-29T17:30:43.749Z,13.17
2019-01-29T17:33:14.695Z,13.10
2019-01-29T17:35:43.120Z,12.70
2019-01-29T17:38:12.852Z,13.60
2019-01-29T17:40:42.376Z,13.07
2019-01-29T17:43:10.804Z,13.57
2019-01-29T17:45:47.373Z,13.00
2019-01-29T17:48:15.796Z,12.00
2019-01-29T17:50:45.609Z,13.78
2019-01-29T17:53:15.854Z,13.90
2019-01-29T17:55:45.647Z,14.50
2019-01-29T17:58:14.916Z,13.10
2019-01-29T18:00:48.273Z,12.40
2019-01-29T18:03:16.674Z,12.83
2019-01-29T18:05:46.196Z,13.07
2019-01-29T18:08:14.681Z,11.90
2019-01-29T18:10:45.139Z,12.37
2019-01-29T18:13:13.662Z,12.90
2019-01-29T18:15:42.155Z,13.80
2019-01-29T18:18:10.894Z,16.33
2019-01-29T18:20:39.379Z,15.17
2019-01-29T18:23:07.785Z,15.00
2019-01-29T18:25:36.217Z,16.43
2019-01-29T18:28:05.559Z,13.70
2019-01-29T18:30:35.816Z,14.30
2019-01-29T18:33:04.771Z,16.00
2019-01-29T18:35:33.180Z,14.30
2019-01-29T18:38:01.585Z,15.10
2019-01-29T18:40:33.139Z,15.97
2019-01-29T18:43:01.565Z,16.30
2019-01-29T18:45:30.002Z,15.60
2019-01-29T18:47:58.408Z,14.80
2019-01-29T18:50:27.205Z,15.30
2019-01-29T18:52:55.607Z,14.07
2019-01-29T18:55:24.273Z,16.20
2019-01-29T18:57:52.681Z,14.70
2019-01-29T19:00:26.275Z,15.03
2019-01-29T19:02:54.736Z,15.53
2019-01-29T19:05:25.698Z,15.43
2019-01-29T19:07:54.415Z,16.27
2019-01-29T19:10:23.362Z,14.57
2019-01-29T19:12:52.508Z,14.40
2019-01-29T19:15:25.726Z,15.90
2019-01-29T19:17:54.155Z,15.17
2019-01-29T19:20:25.473Z,15.77
2019-01-29T19:22:54.065Z,16.10
2019-01-29T19:25:22.964Z,16.80
2019-01-29T19:27:51.536Z,15.73
2019-01-29T19:30:22.768Z,15.60
2019-01-29T19:32:51.179Z,13.93
2019-01-29T19:35:19.628Z,15.13
2019-01-29T19:37:48.047Z,15.60
2019-01-29T19:40:19.091Z,16.83
2019-01-29T19:42:47.569Z,17.87
2019-01-29T19:45:25.202Z,18.07
2019-01-29T19:47:54.380Z,20.30
2019-01-29T19:50:25.211Z,17.40
2019-01-29T19:52:53.717Z,16.40
2019-01-29T19:55:23.795Z,17.03
2019-01-29T19:57:52.220Z,15.33
2019-01-29T20:00:26.333Z,16.87
2019-01-29T20:02:56.972Z,18.37
2019-01-29T20:05:25.185Z,18.50
2019-01-29T20:07:53.759Z,18.90
2019-01-29T20:10:22.636Z,17.60
2019-01-29T20:12:51.901Z,22.33
2019-01-29T20:15:23.020Z,17.73
2019-01-29T20:17:53.265Z,17.70
2019-01-29T20:20:27.142Z,19.10
2019-01-29T20:22:55.580Z,16.37
2019-01-29T20:25:23.990Z,19.40
2019-01-29T20:27:53.122Z,18.30
2019-01-29T20:30:25.356Z,16.60
2019-01-29T20:32:53.904Z,17.77
2019-01-29T20:35:22.634Z,19.27
2019-01-29T20:37:51.048Z,18.17
2019-01-29T20:40:23.940Z,18.30
2019-01-29T20:42:52.377Z,18.27
2019-01-29T20:45:21.040Z,17.17
2019-01-29T20:47:49.736Z,18.07
2019-01-29T20:50:23.934Z,18.77
2019-01-29T20:52:52.362Z,20.17
2019-01-29T20:55:20.802Z,17.80
2019-01-29T20:57:49.203Z,17.87
2019-01-29T21:00:21.862Z,24.00
2019-01-29T21:02:50.276Z,19.80
2019-01-29T21:05:18.789Z,19.60
2019-01-29T21:07:47.532Z,17.40
2019-01-29T21:10:18.385Z,18.00
2019-01-29T21:12:46.802Z,18.40
2019-01-29T21:15:17.253Z,15.60
2019-01-29T21:17:46.051Z,16.87
2019-01-29T21:20:17.544Z,17.27
2019-01-29T21:22:45.961Z,16.87
2019-01-29T21:25:14.873Z,16.67
2019-01-29T21:27:43.863Z,16.87
2019-01-29T21:30:17.826Z,18.80
2019-01-29T21:32:46.264Z,16.27
2019-01-29T21:35:14.683Z,17.90
2019-01-29T21:37:43.108Z,17.53
2019-01-29T21:40:14.270Z,27.70
2019-01-29T21:42:42.710Z,18.50
2019-01-29T21:45:17.073Z,16.97
2019-01-29T21:47:46.253Z,15.93
2019-01-29T21:50:29.074Z,18.57
2019-01-29T21:52:57.682Z,16.50
2019-01-29T21:55:26.703Z,15.27
2019-01-29T21:57:55.374Z,16.47
2019-01-29T22:00:26.883Z,16.30
2019-01-29T22:02:55.595Z,16.27
2019-01-29T22:05:24.197Z,18.07
2019-01-29T22:07:52.617Z,16.30
2019-01-29T22:10:21.104Z,17.67
2019-01-29T22:12:49.692Z,17.80
2019-01-29T22:15:23.883Z,16.37
2019-01-29T22:17:52.317Z,17.60
2019-01-29T22:20:22.451Z,17.20
2019-01-29T22:22:51.081Z,17.43
2019-01-29T22:25:21.913Z,17.40
2019-01-29T22:27:50.355Z,17.97
2019-01-29T22:30:31.682Z,19.77
2019-01-29T22:33:00.080Z,18.30
2019-01-29T22:35:28.692Z,19.60
2019-01-29T22:37:57.143Z,18.80
2019-01-29T22:40:28.220Z,20.00
2019-01-29T22:42:57.200Z,20.50
2019-01-29T22:45:26.032Z,20.50
2019-01-29T22:47:54.564Z,20.63
2019-01-29T22:50:41.770Z,56.43
2019-01-29T22:53:10.153Z,21.67
2019-01-29T22:55:38.565Z,19.83
2019-01-29T22:58:08.524Z,20.87
2019-01-29T23:00:56.651Z,21.00
2019-01-29T23:03:33.416Z,20.00
2019-01-29T23:06:13.955Z,17.53
2019-01-29T23:08:42.377Z,50.77
2019-01-29T23:11:10.808Z,25.40
2019-01-29T23:13:39.230Z,18.57
2019-01-29T23:16:07.832Z,16.90
2019-01-29T23:18:36.353Z,18.80
2019-01-29T23:21:04.927Z,19.00
2019-01-29T23:23:33.328Z,19.07
2019-01-29T23:26:01.767Z,18.53
2019-01-29T23:28:30.173Z,18.73
2019-01-29T23:30:58.621Z,18.83
2019-01-29T23:33:27.075Z,18.73
2019-01-29T23:35:55.495Z,18.40
2019-01-29T23:38:23.896Z,19.27
2019-01-29T23:40:52.321Z,19.90
2019-01-29T23:43:20.725Z,17.33
2019-01-29T23:45:49.145Z,17.73
2019-01-29T23:48:17.668Z,19.60
2019-01-29T23:50:46.076Z,18.80
2019-01-29T23:53:14.508Z,18.63
2019-01-29T23:55:42.916Z,17.53
2019-01-29T23:58:11.351Z,18.53
